Time;durP1;ratioP1;P1;durP2;ratioP2;P2;SDS_P1;SDS_P2;PMS_P1;PMS_P2;Temp;Humidity;BMP_temperature;BMP_pressure;BME280_temperature;BME280_humidity;BME280_pressure;Samples;Min_cycle;Max_cycle;Signal;HPM_P1;HPM_P2
2022/04/27 00:02:18;;;;;;;7.67;4.00;;;;;;;16.33;100.00;99408.50;5026808;28;20241;-56
2022/04/27 00:04:45;;;;;;;4.30;3.60;;;;;;;16.29;100.00;99404.34;5026671;28;20289;-55
2022/04/27 00:07:12;;;;;;;5.20;3.90;;;;;;;16.23;100.00;99404.69;5026595;28;20194;-55
2022/04/27 00:09:39;;;;;;;4.80;3.83;;;;;;;16.25;100.00;99406.28;5028693;28;20690;-55
2022/04/27 00:12:06;;;;;;;4.13;3.70;;;;;;;16.17;100.00;99403.22;5030018;28;20621;-55
2022/04/27 00:14:34;;;;;;;3.90;3.60;;;;;;;16.13;100.00;99404.34;5029930;28;20201;-55
2022/04/27 00:17:01;;;;;;;4.27;3.50;;;;;;;16.06;100.00;99389.00;5045478;28;20189;-55
2022/04/27 00:19:28;;;;;;;3.50;3.20;;;;;;;16.15;100.00;99396.38;5049827;28;20223;-59
2022/04/27 00:21:55;;;;;;;4.37;3.63;;;;;;;16.09;100.00;99404.56;5049870;28;20206;-59
2022/04/27 00:24:22;;;;;;;6.40;3.70;;;;;;;16.04;100.00;99390.88;5049871;28;20203;-59
2022/04/27 00:26:49;;;;;;;3.97;3.60;;;;;;;15.92;100.00;99394.97;5049773;28;20678;-58
2022/04/27 00:29:16;;;;;;;4.47;3.30;;;;;;;15.92;100.00;99393.19;5049502;28;20199;-59
2022/04/27 00:31:44;;;;;;;4.70;3.17;;;;;;;15.87;100.00;99397.84;5049532;28;20235;-58
2022/04/27 00:34:11;;;;;;;3.77;3.47;;;;;;;15.80;100.00;99393.03;5049459;28;20196;-58
2022/04/27 00:36:38;;;;;;;3.57;3.30;;;;;;;15.75;100.00;99382.78;5049622;28;20204;-56
2022/04/27 00:39:05;;;;;;;3.17;2.97;;;;;;;15.65;100.00;99372.88;5049404;28;20340;-55
2022/04/27 00:41:33;;;;;;;3.63;3.37;;;;;;;15.53;100.00;99364.69;5049367;28;20678;-55
2022/04/27 00:43:59;;;;;;;3.40;3.20;;;;;;;15.65;100.00;99384.19;5049595;28;20201;-58
2022/04/27 00:46:27;;;;;;;3.23;2.93;;;;;;;15.47;100.00;99356.31;5049592;28;20208;-59
2022/04/27 00:48:55;;;;;;;3.90;3.60;;;;;;;15.61;100.00;99387.88;5049664;28;20595;-57
2022/04/27 00:51:25;;;;;;;9.17;3.67;;;;;;;15.46;100.00;99363.31;5049510;28;20207;-55
2022/04/27 00:53:52;;;;;;;3.90;3.50;;;;;;;15.54;100.00;99386.47;5049309;28;20204;-55
2022/04/27 00:56:21;;;;;;;5.40;3.20;;;;;;;15.51;100.00;99381.41;5049098;28;20544;-56
2022/04/27 00:58:49;;;;;;;3.83;3.53;;;;;;;15.50;100.00;99384.94;5049089;28;20217;-58
2022/04/27 01:01:16;;;;;;;3.60;3.40;;;;;;;15.44;100.00;99385.25;5048986;28;20201;-58
2022/04/27 01:03:43;;;;;;;3.83;3.53;;;;;;;15.38;100.00;99381.16;5049303;28;20207;-58
2022/04/27 01:06:12;;;;;;;4.10;3.70;;;;;;;15.18;100.00;99342.09;5049131;28;20232;-56
2022/04/27 01:08:40;;;;;;;4.77;3.67;;;;;;;15.30;100.00;99351.94;5048966;28;20196;-56
2022/04/27 01:11:07;;;;;;;3.30;3.10;;;;;;;15.34;100.00;99387.50;5048835;28;20204;-57
2022/04/27 01:13:34;;;;;;;4.00;3.43;;;;;;;15.34;100.00;99374.41;5049045;28;20211;-57
2022/04/27 01:16:02;;;;;;;3.40;3.10;;;;;;;15.32;100.00;99381.50;5049286;28;20201;-57
2022/04/27 01:18:29;;;;;;;3.40;3.20;;;;;;;15.21;100.00;99375.94;5048923;28;20257;-57
2022/04/27 01:20:58;;;;;;;3.17;2.97;;;;;;;15.18;100.00;99373.47;5048606;28;20205;-58
2022/04/27 01:23:25;;;;;;;3.67;3.40;;;;;;;15.06;100.00;99368.84;5048805;28;20203;-57
2022/04/27 01:25:54;;;;;;;3.50;3.30;;;;;;;15.03;100.00;99369.84;5048509;28;20239;-57
2022/04/27 01:28:23;;;;;;;3.93;3.63;;;;;;;15.03;100.00;99364.63;5049000;28;20686;-56
2022/04/27 01:30:58;;;;;;;4.20;3.37;;;;;;;14.94;100.00;99359.84;5048609;28;20197;-56
2022/04/27 01:33:25;;;;;;;3.50;3.20;;;;;;;14.87;100.00;99343.63;5048571;28;20256;-56
2022/04/27 01:35:53;;;;;;;4.50;4.20;;;;;;;14.84;100.00;99356.84;5048621;28;20197;-58
2022/04/27 01:38:21;;;;;;;6.53;4.43;;;;;;;14.82;100.00;99363.06;5048249;28;20670;-57
2022/04/27 01:40:53;;;;;;;4.40;4.10;;;;;;;14.82;100.00;99360.44;5048527;28;20203;-57
2022/04/27 01:43:24;;;;;;;6.13;3.97;;;;;;;14.76;100.00;99363.38;5048470;28;20201;-56
2022/04/27 01:45:51;;;;;;;4.07;3.77;;;;;;;14.70;100.00;99367.09;5048456;28;20239;-57
2022/04/27 01:48:18;;;;;;;4.57;4.27;;;;;;;14.55;100.00;99352.19;5048633;28;20193;-57
2022/04/27 01:50:46;;;;;;;4.87;4.47;;;;;;;14.61;100.00;99364.94;5048334;28;20205;-57
2022/04/27 01:55:58;;;;;;;4.27;3.97;;;;;;;14.58;100.00;99367.69;5048599;28;20292;-57
2022/04/27 01:58:26;;;;;;;4.53;4.13;;;;;;;14.42;100.00;99335.41;5048300;28;20224;-61
2022/04/27 02:00:53;;;;;;;5.17;4.13;;;;;;;14.47;100.00;99355.13;5048143;28;20580;-59
2022/04/27 02:03:21;;;;;;;4.33;4.10;;;;;;;14.39;100.00;99352.06;5048031;28;20197;-58
2022/04/27 02:05:49;;;;;;;4.67;4.27;;;;;;;14.39;100.00;99356.41;5048239;28;20204;-58
2022/04/27 02:08:16;;;;;;;4.33;3.93;;;;;;;14.40;100.00;99350.28;5048034;28;20200;-58
2022/04/27 02:10:44;;;;;;;4.43;4.00;;;;;;;14.41;100.00;99349.38;5048087;28;20207;-58
2022/04/27 02:13:13;;;;;;;5.73;5.20;;;;;;;14.39;100.00;99359.00;5047932;28;20199;-58
2022/04/27 02:15:40;;;;;;;5.37;5.07;;;;;;;14.32;100.00;99350.63;5047949;28;20193;-57
2022/04/27 02:18:08;;;;;;;4.50;4.10;;;;;;;14.30;100.00;99352.47;5047856;28;20201;-58
2022/04/27 02:20:34;;;;;;;4.33;4.03;;;;;;;14.22;100.00;99348.50;5047816;28;20277;-56
2022/04/27 02:23:01;;;;;;;4.40;4.00;;;;;;;14.22;100.00;99357.16;5048111;28;20196;-56
2022/04/27 02:25:29;;;;;;;4.23;3.93;;;;;;;14.17;100.00;99351.31;5047760;28;20771;-57
2022/04/27 02:27:55;;;;;;;4.83;4.43;;;;;;;14.11;100.00;99349.81;5047832;28;20568;-57
2022/04/27 02:30:24;;;;;;;4.37;4.17;;;;;;;14.02;100.00;99349.41;5047800;28;20192;-57
2022/04/27 02:32:51;;;;;;;4.80;4.50;;;;;;;13.91;100.00;99322.94;5047110;28;20594;-57
2022/04/27 02:35:19;;;;;;;4.03;3.73;;;;;;;14.09;100.00;99348.22;5047841;28;20287;-55
2022/04/27 02:37:46;;;;;;;4.80;4.37;;;;;;;14.02;100.00;99323.31;5047748;28;20204;-56
2022/04/27 02:40:14;;;;;;;6.93;4.40;;;;;;;14.09;100.00;99340.41;5047513;28;20713;-57
2022/04/27 02:42:41;;;;;;;4.23;4.03;;;;;;;14.03;100.00;99349.34;5047419;28;20236;-56
2022/04/27 02:45:08;;;;;;;4.33;3.93;;;;;;;14.00;100.00;99340.78;5047718;28;20207;-56
2022/04/27 02:47:37;;;;;;;4.87;4.50;;;;;;;13.99;100.00;99333.91;5047533;28;20199;-56
2022/04/27 02:53:03;;;;;;;5.63;5.10;;;;;;;14.05;100.00;99346.66;5005783;28;20291;-59
2022/04/27 02:55:30;;;;;;;5.47;5.07;;;;;;;14.00;100.00;99343.41;4988265;28;20313;-59
2022/04/27 02:57:57;;;;;;;4.93;4.53;;;;;;;13.97;100.00;99344.41;5002891;28;20218;-59
2022/04/27 03:00:24;;;;;;;5.53;5.13;;;;;;;13.98;100.00;99347.88;5034254;28;20693;-57
2022/04/27 03:02:52;;;;;;;7.63;5.13;;;;;;;13.94;100.00;99346.31;5066349;28;20224;-57
2022/04/27 03:05:19;;;;;;;6.73;5.43;;;;;;;13.89;100.00;99345.66;5066103;28;20215;-57
2022/04/27 03:07:46;;;;;;;7.50;5.87;;;;;;;13.85;100.00;99347.56;5066672;28;20611;-57
2022/04/27 03:10:13;;;;;;;6.10;5.70;;;;;;;13.86;100.00;99356.25;5066537;28;20215;-57
2022/04/27 03:12:40;;;;;;;5.33;5.03;;;;;;;13.84;100.00;99352.84;5065637;28;20229;-58
2022/04/27 03:15:08;;;;;;;7.17;5.20;;;;;;;13.82;100.00;99351.16;5066579;28;20224;-55
2022/04/27 03:17:35;;;;;;;5.37;5.03;;;;;;;13.89;100.00;99350.88;5066896;28;20252;-55
2022/04/27 03:20:04;;;;;;;6.00;5.43;;;;;;;13.88;100.00;99352.66;5066121;28;20234;-55
2022/04/27 03:22:31;;;;;;;9.43;6.00;;;;;;;13.90;100.00;99357.78;5066358;28;20251;-55
2022/04/27 03:24:58;;;;;;;9.67;5.70;;;;;;;13.95;100.00;99361.03;5066432;27;20728;-54
2022/04/27 03:27:25;;;;;;;5.87;5.37;;;;;;;13.84;100.00;99369.34;5066001;28;20216;-54
2022/04/27 03:29:52;;;;;;;9.23;5.43;;;;;;;13.78;100.00;99365.22;5066228;28;20215;-54
2022/04/27 03:32:19;;;;;;;6.60;5.93;;;;;;;13.85;100.00;99365.84;5046402;27;20239;-55
2022/04/27 03:34:46;;;;;;;8.60;5.83;;;;;;;13.86;100.00;99366.69;5046076;28;20229;-55
2022/04/27 03:37:15;;;;;;;7.17;6.43;;;;;;;13.91;100.00;99367.31;5046077;27;20216;-55
2022/04/27 03:39:41;;;;;;;8.83;6.00;;;;;;;14.05;100.00;99378.81;5044140;28;20324;-57
2022/04/27 03:42:08;;;;;;;7.37;6.07;;;;;;;14.07;100.00;99366.56;5033164;27;20217;-57
2022/04/27 03:44:35;;;;;;;11.90;5.97;;;;;;;14.09;100.00;99374.31;5038822;28;20216;-57
2022/04/27 03:47:02;;;;;;;5.83;5.33;;;;;;;14.15;100.00;99380.09;5038520;27;20225;-58
2022/04/27 03:49:29;;;;;;;6.00;5.60;;;;;;;14.24;100.00;99377.97;5037560;28;20618;-58
2022/04/27 03:51:58;;;;;;;7.50;6.90;;;;;;;14.26;100.00;99386.59;5038336;27;20299;-57
2022/04/27 03:54:26;;;;;;;9.23;7.90;;;;;;;14.27;100.00;99383.06;5038662;28;20224;-58
2022/04/27 03:56:53;;;;;;;8.17;7.67;;;;;;;14.35;100.00;99391.38;5042497;27;20212;-58
2022/04/27 03:59:20;;;;;;;9.50;8.77;;;;;;;14.41;100.00;99392.00;5042818;27;20240;-58
2022/04/27 04:01:46;;;;;;;9.30;8.60;;;;;;;14.51;100.00;99403.72;5041057;27;20237;-58
2022/04/27 04:04:13;;;;;;;9.20;8.40;;;;;;;14.80;100.00;99393.63;5038181;28;20221;-59
2022/04/27 04:06:40;;;;;;;9.00;8.10;;;;;;;15.17;100.00;99371.78;5036770;27;20216;-57
2022/04/27 04:09:09;;;;;;;8.13;7.43;;;;;;;16.16;100.00;99403.31;5045693;28;20223;-58
2022/04/27 04:11:38;;;;;;;7.37;6.87;;;;;;;17.14;100.00;99404.88;5040422;27;20269;-57
2022/04/27 04:14:05;;;;;;;7.50;6.80;;;;;;;18.12;100.00;99411.25;5039451;28;20249;-58
2022/04/27 04:16:31;;;;;;;6.27;5.70;;;;;;;19.18;100.00;99421.22;5037170;27;20235;-58
2022/04/27 04:18:58;;;;;;;6.35;5.95;;;;;;;20.40;100.00;99419.03;5037843;28;20304;-58
2022/04/27 04:21:26;;;;;;;6.60;5.60;;;;;;;21.52;98.96;99425.78;5038636;28;20330;-59
2022/04/27 04:23:53;;;;;;;5.60;5.13;;;;;;;22.08;92.93;99431.22;5037059;28;20225;-55
2022/04/27 04:29:05;;;;;;;5.85;5.32;;;;;;;23.12;87.63;99442.31;5039104;28;20604;-58
2022/04/27 04:31:32;;;;;;;6.53;5.82;;;;;;;23.93;83.17;99441.69;5039050;28;20244;-58
2022/04/27 04:33:59;;;;;;;8.55;6.05;;;;;;;24.22;81.22;99449.84;5037701;28;20572;-58
2022/04/27 04:36:26;;;;;;;7.40;5.15;;;;;;;24.52;79.27;99441.03;5039313;28;20257;-59
2022/04/27 04:38:53;;;;;;;6.28;5.22;;;;;;;25.05;76.11;99454.06;5033156;28;20220;-58
2022/04/27 04:41:20;;;;;;;7.10;5.53;;;;;;;25.14;74.18;99450.59;5027961;28;20217;-59
2022/04/27 04:43:47;;;;;;;5.35;4.90;;;;;;;25.83;70.19;99453.97;5028917;28;20288;-59
2022/04/27 04:46:15;;;;;;;8.02;5.18;;;;;;;26.51;67.44;99454.63;5028840;28;20201;-59
2022/04/27 04:48:42;;;;;;;9.85;5.13;;;;;;;27.39;63.58;99461.97;5028874;28;20198;-59
2022/04/27 04:51:09;;;;;;;6.35;4.72;;;;;;;28.21;59.89;99463.50;5028845;28;20194;-59
2022/04/27 04:53:36;;;;;;;8.73;4.80;;;;;;;28.65;55.80;99463.38;5028803;28;20209;-55
2022/04/27 04:56:03;;;;;;;5.38;4.53;;;;;;;28.61;55.38;99468.19;5028552;28;20764;-55
2022/04/27 04:58:30;;;;;;;12.52;4.53;;;;;;;28.70;53.97;99469.88;5029436;28;20202;-55
2022/04/27 05:00:57;;;;;;;6.53;4.75;;;;;;;29.55;52.06;99473.34;5029306;28;20221;-55
2022/04/27 05:03:25;;;;;;;5.32;4.22;;;;;;;29.99;49.67;99479.22;5029417;28;20660;-59
2022/04/27 05:05:52;;;;;;;5.95;3.95;;;;;;;29.56;50.09;99472.34;5029339;28;20623;-60
2022/04/27 05:08:19;;;;;;;8.80;4.10;;;;;;;28.87;51.92;99469.00;5029024;28;20698;-58
2022/04/27 05:10:46;;;;;;;6.22;3.92;;;;;;;29.16;51.25;99481.09;5029512;28;20198;-58
2022/04/27 05:13:13;;;;;;;7.75;4.38;;;;;;;29.16;51.50;99473.91;5029004;28;20197;-58
2022/04/27 05:15:40;;;;;;;7.10;4.47;;;;;;;29.90;49.93;99472.16;5029352;28;20217;-58
2022/04/27 05:18:07;;;;;;;4.93;4.32;;;;;;;30.66;47.63;99482.41;5029230;28;20591;-59
2022/04/27 05:20:37;;;;;;;5.45;4.25;;;;;;;30.67;47.35;99481.41;5029325;28;20774;-59
2022/04/27 05:23:04;;;;;;;10.40;4.15;;;;;;;30.96;46.93;99478.06;5028847;28;20233;-59
2022/04/27 05:25:33;;;;;;;5.57;4.30;;;;;;;31.02;45.65;99472.03;5028933;28;20233;-60
2022/04/27 05:28:02;;;;;;;3.90;3.60;;;;;;;30.19;47.31;99477.81;5029016;28;20689;-58
2022/04/27 05:33:13;;;;;;;5.53;3.90;;;;;;;30.31;47.45;99475.63;5028916;28;20201;-55
2022/04/27 05:35:42;;;;;;;9.30;4.65;;;;;;;30.62;46.86;99483.75;5028850;28;20207;-54
2022/04/27 05:38:10;;;;;;;5.47;4.82;;;;;;;30.12;47.64;99474.19;5028970;28;20726;-58
2022/04/27 05:40:39;;;;;;;10.05;5.47;;;;;;;30.69;47.07;99479.41;5028699;28;20232;-58
2022/04/27 05:43:07;;;;;;;11.80;4.80;;;;;;;30.62;46.32;99476.56;5028606;28;20197;-58
2022/04/27 05:45:34;;;;;;;7.72;5.05;;;;;;;29.69;48.60;99485.19;5028711;28;20655;-59
2022/04/27 05:48:01;;;;;;;6.03;5.53;;;;;;;29.57;49.45;99485.53;5028425;28;20208;-59
2022/04/27 05:50:28;;;;;;;5.75;4.53;;;;;;;30.51;47.64;99481.41;5028498;28;20593;-59
2022/04/27 05:52:58;;;;;;;5.88;5.13;;;;;;;30.27;48.14;99477.81;5028438;28;20201;-58
2022/04/27 05:55:25;;;;;;;6.68;4.78;;;;;;;31.03;46.86;99487.94;5028299;28;20201;-59
2022/04/27 05:57:53;;;;;;;5.10;4.72;;;;;;;31.53;45.59;99486.63;5028334;28;20197;-59
2022/04/27 06:00:21;;;;;;;5.82;5.28;;;;;;;32.23;43.87;99490.94;5028162;28;20732;-60
2022/04/27 06:02:48;;;;;;;8.52;4.65;;;;;;;31.26;45.82;99489.84;5028219;28;20589;-60
2022/04/27 06:05:15;;;;;;;5.55;3.85;;;;;;;31.44;45.05;99484.19;5028229;28;20197;-58
2022/04/27 06:07:42;;;;;;;4.85;4.00;;;;;;;32.21;43.72;99485.75;5027275;28;20204;-59
2022/04/27 06:10:11;;;;;;;7.20;3.90;;;;;;;32.91;42.66;99488.00;5028020;28;20249;-59
2022/04/27 06:12:46;;;;;;;6.35;3.70;;;;;;;32.59;41.93;99493.75;5028216;28;20203;-59
2022/04/27 06:15:14;;;;;;;4.55;3.30;;;;;;;32.82;41.39;99491.81;5028023;28;20288;-59
2022/04/27 06:17:41;;;;;;;4.97;3.47;;;;;;;32.64;42.02;99492.16;5028080;28;20197;-59
2022/04/27 06:20:10;;;;;;;5.97;3.67;;;;;;;32.49;41.50;99490.50;5028091;28;20608;-59
2022/04/27 06:22:36;;;;;;;4.28;2.90;;;;;;;31.98;42.58;99491.16;5028055;28;20265;-59
2022/04/27 06:25:04;;;;;;;3.25;3.05;;;;;;;32.31;41.63;99499.75;5027698;28;20260;-59
2022/04/27 06:27:33;;;;;;;4.60;2.80;;;;;;;32.29;41.63;99495.56;5027821;28;20205;-59
2022/04/27 06:30:00;;;;;;;3.03;2.80;;;;;;;32.26;41.82;99502.16;5027881;28;20236;-54
2022/04/27 06:32:30;;;;;;;3.88;2.88;;;;;;;31.45;42.95;99500.13;5027941;28;20215;-59
2022/04/27 06:34:58;;;;;;;3.58;3.17;;;;;;;31.26;44.48;99500.59;5027719;28;20201;-58
2022/04/27 06:37:25;;;;;;;4.53;3.42;;;;;;;30.50;45.55;99485.09;5027676;28;20288;-58
2022/04/27 06:39:52;;;;;;;3.65;3.35;;;;;;;31.51;44.22;99504.75;5027704;28;20205;-59
2022/04/27 06:42:20;;;;;;;4.43;3.20;;;;;;;32.31;42.57;99505.13;5027613;28;20197;-58
2022/04/27 06:44:49;;;;;;;8.90;2.80;;;;;;;32.36;41.88;99496.53;5027911;28;20288;-58
2022/04/27 06:47:16;;;;;;;4.13;2.85;;;;;;;31.77;43.37;99500.91;5027721;28;20209;-60
2022/04/27 06:49:43;;;;;;;5.53;3.10;;;;;;;31.92;43.33;99508.00;5027709;28;20201;-58
2022/04/27 06:52:10;;;;;;;3.90;3.50;;;;;;;31.77;44.13;99501.75;5027532;28;20250;-57
2022/04/27 06:54:37;;;;;;;4.15;3.25;;;;;;;31.84;43.50;99502.69;5027462;28;20235;-58
2022/04/27 06:57:04;;;;;;;5.80;2.97;;;;;;;32.03;43.63;99501.34;5027633;28;20205;-58
2022/04/27 06:59:31;;;;;;;4.43;3.20;;;;;;;31.88;43.59;99503.16;5027379;28;20201;-55
2022/04/27 07:01:59;;;;;;;5.53;2.95;;;;;;;31.58;42.73;99500.34;5027508;28;20221;-55
2022/04/27 07:04:26;;;;;;;3.65;3.08;;;;;;;31.08;43.56;99497.28;5027337;28;20198;-55
2022/04/27 07:06:57;;;;;;;5.53;2.92;;;;;;;31.68;42.47;99509.03;5027211;28;20201;-56
2022/04/27 07:09:24;;;;;;;4.47;2.97;;;;;;;32.33;41.55;99505.78;5027132;28;20584;-55
2022/04/27 07:11:52;;;;;;;9.73;3.50;;;;;;;31.89;42.73;99500.31;5027450;28;20240;-54
2022/04/27 07:14:19;;;;;;;3.42;3.13;;;;;;;32.21;42.08;99509.09;5027397;28;20201;-55
2022/04/27 07:16:46;;;;;;;4.00;3.25;;;;;;;32.12;41.49;99505.63;5027215;28;20284;-55
2022/04/27 07:19:15;;;;;;;4.65;3.20;;;;;;;31.42;42.09;99508.50;5026686;28;20204;-56
2022/04/27 07:21:42;;;;;;;3.20;2.97;;;;;;;31.09;41.66;99515.06;5027008;28;20221;-55
2022/04/27 07:24:09;;;;;;;4.60;3.10;;;;;;;31.61;41.30;99510.72;5027187;28;20203;-55
2022/04/27 07:26:36;;;;;;;5.70;3.30;;;;;;;32.25;40.47;99516.63;5027190;28;20200;-56
2022/04/27 07:29:03;;;;;;;5.65;3.25;;;;;;;32.44;40.14;99513.38;5027261;28;20553;-54
2022/04/27 07:31:32;;;;;;;6.20;2.97;;;;;;;33.05;38.47;99497.91;5026951;28;20203;-56
2022/04/27 07:33:59;;;;;;;10.15;4.18;;;;;;;33.35;37.72;99498.66;5026872;28;20288;-55
2022/04/27 07:36:27;;;;;;;4.15;3.60;;;;;;;32.32;40.00;99496.03;5026843;28;20199;-55
2022/04/27 07:38:54;;;;;;;5.55;3.60;;;;;;;31.98;40.57;99509.09;5026912;28;20205;-55
2022/04/27 07:41:21;;;;;;;5.13;3.58;;;;;;;32.32;39.45;99506.78;5026939;28;20231;-55
2022/04/27 07:43:48;;;;;;;6.78;3.75;;;;;;;32.72;39.55;99497.47;5027033;28;20197;-58
2022/04/27 07:46:14;;;;;;;5.03;3.88;;;;;;;33.30;38.31;99500.25;5026799;28;20205;-58
2022/04/27 07:48:41;;;;;;;3.47;3.20;;;;;;;33.62;36.55;99499.78;5026901;28;20595;-58
2022/04/27 07:51:08;;;;;;;7.80;3.60;;;;;;;33.89;36.98;99503.56;5026623;28;20197;-58
2022/04/27 07:53:37;;;;;;;7.57;3.25;;;;;;;34.19;35.94;99496.97;5026791;28;20203;-59
2022/04/27 07:56:05;;;;;;;7.15;3.75;;;;;;;34.18;35.65;99494.47;5026827;28;20201;-58
2022/04/27 07:58:32;;;;;;;5.90;3.55;;;;;;;33.92;35.46;99495.09;5026843;28;20193;-58
2022/04/27 08:01:00;;;;;;;5.80;4.22;;;;;;;33.15;37.11;99489.53;5026545;28;20324;-55
2022/04/27 08:03:27;;;;;;;5.03;3.67;;;;;;;32.56;37.59;99491.44;5026541;28;20197;-56
2022/04/27 08:05:54;;;;;;;7.78;4.82;;;;;;;32.37;38.20;99487.44;5026744;28;20201;-56
2022/04/27 08:08:21;;;;;;;6.45;3.80;;;;;;;32.59;38.33;99499.13;5026718;28;20198;-56
2022/04/27 08:10:49;;;;;;;5.78;3.55;;;;;;;32.36;37.63;99494.69;5026976;28;20667;-56
2022/04/27 08:13:17;;;;;;;4.80;3.97;;;;;;;32.88;37.87;99495.59;5026477;28;20207;-55
2022/04/27 08:15:45;;;;;;;5.75;3.90;;;;;;;32.32;38.26;99474.56;5026416;28;20205;-56
2022/04/27 08:18:12;;;;;;;4.35;3.80;;;;;;;31.96;39.75;99493.19;5026297;28;20198;-54
2022/04/27 08:23:28;;;;;;;8.43;4.18;;;;;;;32.77;38.17;99488.84;5027210;28;20201;-56
2022/04/27 08:26:00;;;;;;;7.88;4.68;;;;;;;33.13;37.22;99489.69;5026325;28;20225;-56
2022/04/27 08:28:28;;;;;;;9.90;4.25;;;;;;;33.86;35.33;99471.66;5026542;28;20199;-56
2022/04/27 08:30:56;;;;;;;7.53;3.97;;;;;;;33.88;35.02;99472.25;5028767;28;20618;-55
2022/04/27 08:33:23;;;;;;;15.55;4.53;;;;;;;34.60;34.03;99486.25;5029771;28;20218;-55
2022/04/27 08:35:50;;;;;;;10.02;4.72;;;;;;;34.70;33.40;99485.88;5029514;28;20288;-55
2022/04/27 08:38:17;;;;;;;7.50;3.90;;;;;;;33.96;35.09;99474.84;5029517;28;20200;-55
2022/04/27 08:40:46;;;;;;;10.88;5.10;;;;;;;32.58;37.70;99478.63;5029528;28;20221;-55
2022/04/27 08:43:15;;;;;;;7.63;5.43;;;;;;;31.55;39.69;99475.72;5029280;28;20201;-54
2022/04/27 08:45:44;;;;;;;5.15;4.75;;;;;;;31.30;40.31;99461.66;5029501;28;20206;-54
2022/04/27 08:48:13;;;;;;;8.50;5.07;;;;;;;30.83;41.38;99462.56;5029518;28;20691;-55
2022/04/27 08:50:40;;;;;;;10.90;4.78;;;;;;;31.22;41.22;99457.19;5029514;28;20200;-55
2022/04/27 08:53:08;;;;;;;12.73;4.97;;;;;;;30.75;41.19;99467.13;5029550;28;20288;-55
2022/04/27 08:55:37;;;;;;;9.32;4.45;;;;;;;30.94;41.26;99458.66;5029270;28;20207;-56
2022/04/27 08:58:08;;;;;;;9.80;4.50;;;;;;;30.74;41.79;99458.25;5029342;28;20202;-55
2022/04/27 09:00:37;;;;;;;5.88;4.32;;;;;;;30.00;43.73;99455.97;5029448;28;20608;-55
2022/04/27 09:03:27;;;;;;;8.45;5.03;;;;;;;29.32;45.35;99454.41;5029363;28;20284;-55
2022/04/27 09:05:55;;;;;;;9.95;5.18;;;;;;;29.43;46.67;99442.56;5029061;28;20204;-55
2022/04/27 09:08:25;;;;;;;4.85;4.40;;;;;;;29.81;45.58;99447.22;5028098;27;20239;-58
2022/04/27 09:11:12;;;;;;;10.38;4.60;;;;;;;29.52;44.69;99447.75;5028369;28;20308;-57
2022/04/27 09:13:39;;;;;;;11.10;4.30;;;;;;;29.37;44.98;99451.22;5028194;28;20224;-58
2022/04/27 09:16:08;;;;;;;5.10;4.22;;;;;;;28.76;45.71;99449.72;5028542;28;20221;-58
2022/04/27 09:21:59;;;;;;;6.45;3.83;;;;;;;28.79;45.21;99447.56;5028440;28;20322;-57
2022/04/27 09:24:27;;;;;;;6.00;3.80;;;;;;;28.89;44.85;99426.91;5028392;28;20654;-58
2022/04/27 09:27:02;;;;;;;5.38;3.83;;;;;;;29.36;45.72;99438.84;5033669;28;20229;-56
2022/04/27 09:29:31;;;;;;;6.90;3.50;;;;;;;29.88;43.89;99431.34;5063223;28;20278;-55
2022/04/27 09:32:00;;;;;;;5.82;4.00;;;;;;;29.68;44.16;99436.22;5066444;28;20192;-55
2022/04/27 09:34:31;;;;;;;5.07;4.05;;;;;;;29.94;43.78;99434.16;5068291;28;20200;-57
2022/04/27 09:37:02;;;;;;;9.63;4.32;;;;;;;29.71;44.34;99433.19;5068957;27;20591;-58
2022/04/27 09:39:29;;;;;;;4.30;3.92;;;;;;;29.73;44.92;99427.69;5068592;28;20670;-58
2022/04/27 09:42:04;;;;;;;5.50;3.88;;;;;;;29.14;46.59;99418.94;5068255;28;20314;-58
2022/04/27 09:44:33;;;;;;;6.78;4.22;;;;;;;29.69;46.25;99426.34;5068844;28;20692;-58
2022/04/27 09:47:06;;;;;;;4.97;4.10;;;;;;;30.06;44.83;99426.66;5068672;28;20683;-58
2022/04/27 09:49:36;;;;;;;3.97;3.60;;;;;;;30.51;43.97;99406.41;5068541;27;20192;-58
2022/04/27 09:52:05;;;;;;;6.43;4.20;;;;;;;30.52;44.30;99418.81;5068970;28;20206;-58
2022/04/27 09:54:34;;;;;;;4.45;4.05;;;;;;;31.42;42.38;99421.84;5068490;28;20217;-58
2022/04/27 09:57:02;;;;;;;7.35;4.30;;;;;;;31.03;43.18;99412.88;5068391;28;20235;-59
2022/04/27 09:59:30;;;;;;;6.47;4.03;;;;;;;30.61;44.38;99415.94;5049985;27;20281;-59
2022/04/27 10:02:00;;;;;;;7.15;3.90;;;;;;;30.81;43.78;99421.72;5048184;28;20233;-57
2022/04/27 10:04:29;;;;;;;4.45;3.55;;;;;;;31.28;43.14;99416.22;5039075;28;20206;-57
2022/04/27 10:06:59;;;;;;;5.00;3.53;;;;;;;30.83;42.90;99416.16;5028471;28;20193;-57
2022/04/27 10:09:27;;;;;;;5.65;3.58;;;;;;;30.88;43.24;99408.44;5028145;28;20209;-56
2022/04/27 10:11:55;;;;;;;3.80;3.58;;;;;;;31.57;41.91;99410.13;5028182;28;20189;-55
2022/04/27 10:14:22;;;;;;;3.85;3.55;;;;;;;31.76;40.78;99408.81;5028244;28;20274;-55
2022/04/27 10:16:49;;;;;;;6.32;3.67;;;;;;;31.82;41.10;99404.59;5028199;28;20671;-55
2022/04/27 10:19:17;;;;;;;3.97;3.03;;;;;;;30.63;41.79;99407.72;5028051;28;20197;-55
2022/04/27 10:21:57;;;;;;;5.35;2.90;;;;;;;29.08;45.02;99398.22;5027986;28;20217;-56
2022/04/27 10:24:51;;;;;;;7.22;3.05;;;;;;;27.65;49.40;99397.22;5028233;28;20208;-55
2022/04/27 10:27:19;;;;;;;3.67;3.38;;;;;;;27.20;49.98;99395.47;5015129;28;20284;-55
2022/04/27 10:29:50;;;;;;;5.68;2.80;;;;;;;27.00;50.62;99388.63;5036668;28;20680;-55
2022/04/27 10:32:39;;;;;;;4.22;3.00;;;;;;;25.90;54.16;99388.56;5029328;28;20198;-55
2022/04/27 10:35:21;;;;;;;4.70;3.70;;;;;;;25.65;54.80;99379.41;5027902;28;20229;-54
2022/04/27 10:37:54;;;;;;;5.07;3.65;;;;;;;25.82;55.46;99385.81;5027691;28;20199;-54
2022/04/27 10:40:32;;;;;;;3.40;3.15;;;;;;;25.74;56.72;99383.00;5027933;28;20221;-55
2022/04/27 10:43:03;;;;;;;3.95;3.13;;;;;;;25.91;55.36;99376.13;5027811;28;20216;-55
2022/04/27 10:45:30;;;;;;;3.83;3.17;;;;;;;25.61;56.24;99379.84;5027728;28;20204;-56
2022/04/27 10:47:57;;;;;;;7.22;3.30;;;;;;;25.43;56.26;99366.41;5027779;28;20313;-55
2022/04/27 10:50:33;;;;;;;7.30;3.33;;;;;;;25.38;57.07;99373.13;5027555;28;20197;-56
2022/04/27 10:53:17;;;;;;;6.35;2.67;;;;;;;25.33;56.79;99366.41;5026994;28;20593;-57
2022/04/27 10:55:55;;;;;;;5.72;2.85;;;;;;;25.52;56.17;99354.91;5027535;28;20197;-56
2022/04/27 10:58:28;;;;;;;7.32;2.72;;;;;;;25.69;55.01;99358.69;5027382;28;20197;-58
2022/04/27 11:01:25;;;;;;;2.40;2.20;;;;;;;25.35;55.43;99366.28;5027098;28;20204;-58
2022/04/27 11:04:06;;;;;;;3.30;2.28;;;;;;;24.89;56.94;99362.47;5027361;28;20201;-57
2022/04/27 11:07:24;;;;;;;8.05;2.10;;;;;;;24.85;56.98;99346.94;5027461;28;20233;-58
2022/04/27 11:10:10;;;;;;;3.95;2.05;;;;;;;25.09;56.63;99352.72;5027523;28;20713;-56
2022/04/27 11:12:38;;;;;;;4.15;2.03;;;;;;;25.19;56.55;99350.88;5027498;28;20647;-58
2022/04/27 11:15:05;;;;;;;7.55;2.50;;;;;;;25.15;56.26;99352.16;5027481;28;20300;-57
2022/04/27 11:17:34;;;;;;;5.70;2.17;;;;;;;25.04;57.10;99344.34;5027164;28;20208;-56
2022/04/27 11:20:02;;;;;;;5.53;2.20;;;;;;;25.05;56.38;99348.69;5027196;28;20237;-56
2022/04/27 11:22:36;;;;;;;4.35;1.90;;;;;;;25.26;56.40;99348.53;5026970;28;20220;-56
2022/04/27 11:25:06;;;;;;;7.38;2.35;;;;;;;25.08;56.79;99332.44;5026944;28;20236;-57
2022/04/27 11:27:36;;;;;;;5.18;2.22;;;;;;;25.26;56.32;99333.44;5027200;28;20684;-58
2022/04/27 11:30:04;;;;;;;3.90;2.30;;;;;;;25.44;55.72;99336.19;5027025;28;20572;-57
2022/04/27 11:32:31;;;;;;;5.00;2.40;;;;;;;25.44;54.42;99338.00;5027108;28;20205;-58
2022/04/27 11:34:58;;;;;;;4.22;2.03;;;;;;;25.22;54.47;99329.38;5027150;28;20201;-58
2022/04/27 11:37:25;;;;;;;16.60;2.92;;;;;;;25.15;54.96;99322.13;5027051;28;20655;-59
2022/04/27 11:39:53;;;;;;;5.80;3.13;;;;;;;24.96;55.05;99320.28;5026975;28;20193;-59
2022/04/27 11:42:20;;;;;;;8.40;2.50;;;;;;;25.12;54.70;99315.25;5026609;28;20224;-58
2022/04/27 11:44:59;;;;;;;4.05;2.50;;;;;;;25.07;54.91;99312.19;5027123;28;20203;-58
2022/04/27 11:47:28;;;;;;;2.45;2.25;;;;;;;24.92;55.47;99311.78;5026833;28;20232;-57
2022/04/27 11:49:57;;;;;;;5.47;2.35;;;;;;;24.88;55.21;99294.41;5026976;28;20659;-56
2022/04/27 11:52:24;;;;;;;5.35;2.97;;;;;;;24.95;55.98;99297.38;5026790;28;20726;-57
2022/04/27 11:54:51;;;;;;;3.75;2.40;;;;;;;25.10;55.64;99297.78;5026632;28;20205;-57